createdAt,value
2017-01-09T00:00:08.049Z,-1.7
2017-01-09T00:00:29.397Z,-1.7
2017-01-09T00:00:50.747Z,-1.6
2017-01-09T00:01:12.115Z,-1.6
2017-01-09T00:01:33.479Z,-1.7
2017-01-09T00:01:54.817Z,-1.7
2017-01-09T00:02:16.184Z,-1.7
2017-01-09T00:02:37.533Z,-1.7
2017-01-09T00:02:58.888Z,-1.7
2017-01-09T00:03:20.228Z,-1.7
2017-01-09T00:03:41.577Z,-1.7
2017-01-09T00:04:02.913Z,-1.6
2017-01-09T00:04:24.288Z,-1.7
2017-01-09T00:04:45.660Z,-1.7
2017-01-09T00:05:06.997Z,-1.6
2017-01-09T00:05:28.366Z,-1.6
2017-01-09T00:05:49.717Z,-1.7
2017-01-09T00:06:11.078Z,-1.7
2017-01-09T00:06:32.408Z,-1.7
2017-01-09T00:06:53.794Z,-1.7
2017-01-09T00:07:15.124Z,-1.7
2017-01-09T00:07:36.497Z,-1.7
2017-01-09T00:07:57.864Z,-1.7
2017-01-09T00:08:19.233Z,-1.7
2017-01-09T00:08:40.585Z,-1.7
2017-01-09T00:09:01.947Z,-1.6
2017-01-09T00:09:23.322Z,-1.6
2017-01-09T00:09:44.689Z,-1.6
2017-01-09T00:10:06.061Z,-1.7
2017-01-09T00:10:27.415Z,-1.6
2017-01-09T00:10:48.746Z,-1.6
2017-01-09T00:11:10.118Z,-1.6
2017-01-09T00:11:31.487Z,-1.6
2017-01-09T00:11:52.838Z,-1.6
2017-01-09T00:12:14.179Z,-1.6
2017-01-09T00:12:35.518Z,-1.7
2017-01-09T00:12:56.850Z,-1.6
2017-01-09T00:13:18.192Z,-1.6
2017-01-09T00:13:39.557Z,-1.6
2017-01-09T00:14:00.924Z,-1.7
2017-01-09T00:14:22.278Z,-1.6
2017-01-09T00:14:43.677Z,-1.7
2017-01-09T00:15:05.023Z,-1.7
2017-01-09T00:15:26.378Z,-1.7
2017-01-09T00:15:47.762Z,-1.7
2017-01-09T00:16:09.121Z,-1.7
2017-01-09T00:16:30.471Z,-1.7
2017-01-09T00:16:51.845Z,-1.7
2017-01-09T00:17:13.252Z,-1.7
2017-01-09T00:17:34.602Z,-1.7
2017-01-09T00:17:55.944Z,-1.8
2017-01-09T00:18:17.304Z,-1.7
2017-01-09T00:18:38.634Z,-1.7
2017-01-09T00:18:59.969Z,-1.8
2017-01-09T00:19:21.328Z,-1.8
2017-01-09T00:19:42.723Z,-1.8
2017-01-09T00:20:04.075Z,-1.8
2017-01-09T00:20:25.448Z,-1.8
2017-01-09T00:20:46.784Z,-1.8
2017-01-09T00:21:08.137Z,-1.8
2017-01-09T00:21:29.474Z,-1.8
2017-01-09T00:21:50.822Z,-1.8
2017-01-09T00:22:12.209Z,-1.8
2017-01-09T00:22:33.597Z,-1.8
2017-01-09T00:22:54.943Z,-1.8
2017-01-09T00:23:16.285Z,-1.8
2017-01-09T00:23:37.662Z,-1.8
2017-01-09T00:23:59.021Z,-1.8
2017-01-09T00:24:20.367Z,-1.8
2017-01-09T00:24:41.712Z,-1.8
2017-01-09T00:25:03.052Z,-1.8
2017-01-09T00:25:24.401Z,-1.8
2017-01-09T00:25:45.766Z,-1.9
2017-01-09T00:26:07.137Z,-1.9
2017-01-09T00:26:28.538Z,-1.9
2017-01-09T00:26:49.917Z,-1.9
2017-01-09T00:27:11.259Z,-1.9
2017-01-09T00:27:32.589Z,-1.9
2017-01-09T00:27:53.952Z,-1.9
2017-01-09T00:28:15.300Z,-1.9
2017-01-09T00:28:36.631Z,-1.9
2017-01-09T00:28:58.004Z,-1.8
2017-01-09T00:29:19.346Z,-1.9
2017-01-09T00:29:40.682Z,-1.9
2017-01-09T00:30:02.027Z,-2
2017-01-09T00:30:23.388Z,-1.9
2017-01-09T00:30:44.732Z,-1.9
2017-01-09T00:31:06.099Z,-1.9
2017-01-09T00:31:27.444Z,-1.9
2017-01-09T00:31:48.802Z,-1.9
2017-01-09T00:32:10.188Z,-1.9
2017-01-09T00:32:31.541Z,-1.9
2017-01-09T00:32:52.888Z,-1.9
2017-01-09T00:33:14.228Z,-1.9
2017-01-09T00:33:35.606Z,-1.8
2017-01-09T00:33:56.955Z,-1.9
2017-01-09T00:34:18.300Z,-1.9
2017-01-09T00:34:39.647Z,-1.9
2017-01-09T00:35:00.980Z,-1.9
2017-01-09T00:35:22.312Z,-1.9
2017-01-09T00:35:43.690Z,-1.9
2017-01-09T00:36:05.039Z,-1.9
2017-01-09T00:36:26.410Z,-1.8
2017-01-09T00:36:47.762Z,-1.8
2017-01-09T00:37:09.147Z,-1.8
2017-01-09T00:37:30.500Z,-1.7
2017-01-09T00:37:51.847Z,-1.7
2017-01-09T00:38:13.190Z,-1.8
2017-01-09T00:38:34.549Z,-1.8
2017-01-09T00:38:55.901Z,-1.7
2017-01-09T00:39:17.245Z,-1.8
2017-01-09T00:39:38.590Z,-1.8
2017-01-09T00:39:59.952Z,-1.7
2017-01-09T00:40:21.296Z,-1.7
2017-01-09T00:40:42.674Z,-1.7
2017-01-09T00:41:04.024Z,-1.7
2017-01-09T00:41:25.396Z,-1.7
2017-01-09T00:41:46.785Z,-1.8
2017-01-09T00:42:08.139Z,-1.7
2017-01-09T00:42:29.487Z,-1.7
2017-01-09T00:42:50.838Z,-1.7
2017-01-09T00:43:12.193Z,-1.7
2017-01-09T00:43:33.588Z,-1.7
2017-01-09T00:43:54.949Z,-1.6
2017-01-09T00:44:16.307Z,-1.7
2017-01-09T00:44:37.664Z,-1.7
2017-01-09T00:44:59.018Z,-1.7
2017-01-09T00:45:20.359Z,-1.6
2017-01-09T00:45:41.768Z,-1.7
2017-01-09T00:46:03.113Z,-1.6
2017-01-09T00:46:24.460Z,-1.6
2017-01-09T00:46:45.796Z,-1.6
2017-01-09T00:47:07.143Z,-1.6
2017-01-09T00:47:28.505Z,-1.6
2017-01-09T00:47:49.838Z,-1.6
2017-01-09T00:48:11.162Z,-1.6
2017-01-09T00:48:32.517Z,-1.6
2017-01-09T00:48:53.867Z,-1.6
2017-01-09T00:49:15.213Z,-1.5
2017-01-09T00:49:36.564Z,-1.6
2017-01-09T00:49:57.907Z,-1.6
2017-01-09T00:50:19.265Z,-1.6
2017-01-09T00:50:40.599Z,-1.6
2017-01-09T00:51:01.944Z,-1.5
2017-01-09T00:51:23.308Z,-1.6
2017-01-09T00:51:44.662Z,-1.6
2017-01-09T00:52:06.017Z,-1.6
2017-01-09T00:52:27.377Z,-1.6
2017-01-09T00:52:48.750Z,-1.5
2017-01-09T00:53:10.104Z,-1.6
2017-01-09T00:53:31.451Z,-1.5
2017-01-09T00:53:52.807Z,-1.6
2017-01-09T00:54:14.160Z,-1.5
2017-01-09T00:54:35.519Z,-1.6
2017-01-09T00:54:56.859Z,-1.6
2017-01-09T00:55:18.200Z,-1.6
2017-01-09T00:55:39.538Z,-1.6
2017-01-09T00:56:00.899Z,-1.6
2017-01-09T00:56:22.245Z,-1.6
2017-01-09T00:56:43.604Z,-1.5
2017-01-09T00:57:04.934Z,-1.6
2017-01-09T00:57:26.294Z,-1.6
2017-01-09T00:57:47.626Z,-1.6
2017-01-09T00:58:09.011Z,-1.6
2017-01-09T00:58:30.359Z,-1.6
2017-01-09T00:58:51.725Z,-1.6
2017-01-09T00:59:13.059Z,-1.6
2017-01-09T00:59:34.424Z,-1.7
2017-01-09T00:59:55.770Z,-1.7
2017-01-09T01:00:17.113Z,-1.6
2017-01-09T01:00:38.551Z,-1.7
2017-01-09T01:00:59.906Z,-1.7
2017-01-09T01:01:21.266Z,-1.7
2017-01-09T01:01:42.583Z,-1.7
2017-01-09T01:02:03.942Z,-1.8
2017-01-09T01:02:25.280Z,-1.8
2017-01-09T01:02:46.625Z,-1.8
2017-01-09T01:03:07.977Z,-1.8
2017-01-09T01:03:29.324Z,-1.8
2017-01-09T01:03:50.677Z,-1.9
2017-01-09T01:04:12.013Z,-1.9
2017-01-09T01:04:33.351Z,-1.8
2017-01-09T01:04:54.713Z,-1.9
2017-01-09T01:05:16.103Z,-1.9
2017-01-09T01:05:37.445Z,-1.9
2017-01-09T01:05:58.783Z,-1.9
2017-01-09T01:06:20.133Z,-1.9
2017-01-09T01:06:41.483Z,-1.9
2017-01-09T01:07:02.832Z,-1.9
2017-01-09T01:07:24.207Z,-1.9
2017-01-09T01:07:45.568Z,-1.9
2017-01-09T01:08:06.906Z,-1.9
2017-01-09T01:08:28.269Z,-1.9
2017-01-09T01:08:49.642Z,-1.9
2017-01-09T01:09:11.004Z,-1.8
2017-01-09T01:09:32.362Z,-1.8
2017-01-09T01:09:53.725Z,-1.9
2017-01-09T01:10:15.077Z,-1.9
2017-01-09T01:10:36.433Z,-1.8
2017-01-09T01:10:57.789Z,-1.9
2017-01-09T01:11:19.146Z,-1.8
2017-01-09T01:11:40.531Z,-1.9
2017-01-09T01:12:01.891Z,-1.9
2017-01-09T01:12:23.222Z,-1.8
2017-01-09T01:12:44.581Z,-1.8
2017-01-09T01:13:05.929Z,-1.7
2017-01-09T01:13:27.274Z,-1.8
2017-01-09T01:13:48.629Z,-1.8
2017-01-09T01:14:09.999Z,-1.8
2017-01-09T01:14:31.375Z,-1.8
2017-01-09T01:14:52.718Z,-1.7
2017-01-09T01:15:14.063Z,-1.9
2017-01-09T01:15:35.424Z,-1.8
2017-01-09T01:15:56.786Z,-1.9
2017-01-09T01:16:18.143Z,-1.8
2017-01-09T01:16:39.486Z,-1.8
2017-01-09T01:17:00.848Z,-1.8
2017-01-09T01:17:22.209Z,-1.9
2017-01-09T01:17:43.541Z,-1.8
2017-01-09T01:18:04.869Z,-1.7
2017-01-09T01:18:26.220Z,-1.8
2017-01-09T01:18:47.596Z,-1.8
2017-01-09T01:19:08.932Z,-1.8
2017-01-09T01:19:30.295Z,-1.8
2017-01-09T01:19:51.625Z,-1.8
2017-01-09T01:20:12.975Z,-1.7
2017-01-09T01:20:34.318Z,-1.9
2017-01-09T01:20:55.653Z,-1.8
2017-01-09T01:21:17.002Z,-1.7
2017-01-09T01:21:38.350Z,-1.8
2017-01-09T01:21:59.700Z,-1.9
2017-01-09T01:22:21.044Z,-1.7
2017-01-09T01:22:42.379Z,-1.8
2017-01-09T01:23:04.248Z,-1.7
2017-01-09T01:23:25.600Z,-1.8
2017-01-09T01:23:46.942Z,-1.6
2017-01-09T01:24:08.286Z,-1.8
2017-01-09T01:24:29.689Z,-1.7
2017-01-09T01:24:51.033Z,-1.8
2017-01-09T01:25:12.377Z,-1.8
2017-01-09T01:25:33.716Z,-1.7
2017-01-09T01:25:55.056Z,-1.7
2017-01-09T01:26:16.402Z,-1.8
2017-01-09T01:26:37.753Z,-1.7
2017-01-09T01:26:59.107Z,-1.8
2017-01-09T01:27:20.458Z,-1.8
2017-01-09T01:27:41.842Z,-1.8
2017-01-09T01:28:03.219Z,-1.7
2017-01-09T01:28:24.561Z,-1.7
2017-01-09T01:28:45.917Z,-1.7
2017-01-09T01:29:07.251Z,-1.7
2017-01-09T01:29:28.603Z,-1.8
2017-01-09T01:29:49.961Z,-1.7
2017-01-09T01:30:11.323Z,-1.7
2017-01-09T01:30:32.669Z,-1.7
2017-01-09T01:30:54.022Z,-1.7
2017-01-09T01:31:15.396Z,-1.7
2017-01-09T01:31:36.746Z,-1.7
2017-01-09T01:31:58.087Z,-1.7
2017-01-09T01:32:19.435Z,-1.7
2017-01-09T01:32:40.783Z,-1.7
2017-01-09T01:33:02.139Z,-1.7
2017-01-09T01:33:23.513Z,-1.7
2017-01-09T01:33:44.902Z,-1.7
2017-01-09T01:34:06.248Z,-1.7
2017-01-09T01:34:27.608Z,-1.7
2017-01-09T01:34:48.960Z,-1.7
2017-01-09T01:35:10.303Z,-1.7
2017-01-09T01:35:31.685Z,-1.6
2017-01-09T01:35:53.049Z,-1.7
2017-01-09T01:36:14.389Z,-1.7
2017-01-09T01:36:35.735Z,-1.6
2017-01-09T01:36:57.065Z,-1.7
2017-01-09T01:37:18.409Z,-1.7
2017-01-09T01:37:39.775Z,-1.6
2017-01-09T01:38:01.115Z,-1.6
2017-01-09T01:38:22.468Z,-1.6
2017-01-09T01:38:43.819Z,-1.6
2017-01-09T01:39:05.157Z,-1.6
2017-01-09T01:39:26.508Z,-1.6
2017-01-09T01:39:47.862Z,-1.5
2017-01-09T01:40:09.207Z,-1.5
2017-01-09T01:40:30.553Z,-1.6
2017-01-09T01:40:51.900Z,-1.6
2017-01-09T01:41:13.254Z,-1.6
2017-01-09T01:41:34.618Z,-1.6
2017-01-09T01:41:55.972Z,-1.5
2017-01-09T01:42:17.309Z,-1.5
2017-01-09T01:42:38.680Z,-1.5
2017-01-09T01:43:00.066Z,-1.5
2017-01-09T01:43:21.404Z,-1.6
2017-01-09T01:43:42.745Z,-1.5
2017-01-09T01:44:04.093Z,-1.5
2017-01-09T01:44:25.486Z,-1.5
2017-01-09T01:44:46.850Z,-1.4
2017-01-09T01:45:08.187Z,-1.5
2017-01-09T01:45:29.529Z,-1.5
2017-01-09T01:45:50.882Z,-1.4
2017-01-09T01:46:12.228Z,-1.5
2017-01-09T01:46:33.567Z,-1.5
2017-01-09T01:46:54.924Z,-1.5
2017-01-09T01:47:16.274Z,-1.5
2017-01-09T01:47:37.672Z,-1.5
2017-01-09T01:47:59.030Z,-1.5
2017-01-09T01:48:20.397Z,-1.6
2017-01-09T01:48:41.767Z,-1.5
2017-01-09T01:49:03.111Z,-1.5
2017-01-09T01:49:24.436Z,-1.5
2017-01-09T01:49:45.787Z,-1.5
2017-01-09T01:50:07.124Z,-1.5
2017-01-09T01:50:28.485Z,-1.5
2017-01-09T01:50:49.825Z,-1.5
2017-01-09T01:51:11.166Z,-1.5
2017-01-09T01:51:32.503Z,-1.5
2017-01-09T01:51:53.843Z,-1.5
2017-01-09T01:52:15.220Z,-1.5
2017-01-09T01:52:36.549Z,-1.5
2017-01-09T01:52:57.907Z,-1.4
2017-01-09T01:53:19.254Z,-1.4
2017-01-09T01:53:40.606Z,-1.5
2017-01-09T01:54:01.951Z,-1.5
2017-01-09T01:54:23.311Z,-1.4
2017-01-09T01:54:44.654Z,-1.4
2017-01-09T01:55:06.021Z,-1.4
2017-01-09T01:55:27.394Z,-1.4
2017-01-09T01:55:48.750Z,-1.4
2017-01-09T01:56:10.097Z,-1.4
2017-01-09T01:56:31.475Z,-1.5
2017-01-09T01:56:52.842Z,-1.4
2017-01-09T01:57:14.185Z,-1.4
2017-01-09T01:57:35.532Z,-1.4
2017-01-09T01:57:56.862Z,-1.4
2017-01-09T01:58:18.200Z,-1.5
2017-01-09T01:58:39.561Z,-1.4
2017-01-09T01:59:00.928Z,-1.4
2017-01-09T01:59:22.279Z,-1.4
2017-01-09T01:59:43.647Z,-1.4
2017-01-09T02:00:05.020Z,-1.4
2017-01-09T02:00:26.382Z,-1.4
2017-01-09T02:00:47.745Z,-1.4
2017-01-09T02:01:09.086Z,-1.5
2017-01-09T02:01:30.428Z,-1.4
2017-01-09T02:01:51.781Z,-1.5
2017-01-09T02:02:13.136Z,-1.4
2017-01-09T02:02:34.482Z,-1.5
2017-01-09T02:02:55.820Z,-1.5
2017-01-09T02:03:17.161Z,-1.4
2017-01-09T02:03:38.499Z,-1.4
2017-01-09T02:03:59.870Z,-1.4
2017-01-09T02:04:21.265Z,-1.4
2017-01-09T02:04:42.621Z,-1.5
2017-01-09T02:05:03.936Z,-1.5
2017-01-09T02:05:25.302Z,-1.5
2017-01-09T02:05:46.638Z,-1.4
2017-01-09T02:06:07.998Z,-1.4
2017-01-09T02:06:29.330Z,-1.5
2017-01-09T02:06:50.692Z,-1.4
2017-01-09T02:07:12.085Z,-1.4
2017-01-09T02:07:36.152Z,-1.4
2017-01-09T02:07:57.525Z,-1.4
2017-01-09T02:08:18.858Z,-1.5
2017-01-09T02:08:40.213Z,-1.4
2017-01-09T02:09:01.601Z,-1.5
2017-01-09T02:09:22.966Z,-1.4
2017-01-09T02:09:44.320Z,-1.4
2017-01-09T02:10:05.669Z,-1.5
2017-01-09T02:10:27.047Z,-1.4
2017-01-09T02:10:48.383Z,-1.4
2017-01-09T02:11:09.709Z,-1.4
2017-01-09T02:11:31.093Z,-1.4
2017-01-09T02:11:52.460Z,-1.4
2017-01-09T02:12:13.823Z,-1.4
2017-01-09T02:12:35.160Z,-1.3
2017-01-09T02:12:56.518Z,-1.3
2017-01-09T02:13:17.898Z,-1.5
2017-01-09T02:13:39.245Z,-1.3
2017-01-09T02:14:00.587Z,-1.3
2017-01-09T02:14:21.945Z,-1.3
2017-01-09T02:14:43.307Z,-1.4
2017-01-09T02:15:04.669Z,-1.3
2017-01-09T02:15:26.045Z,-1.4
2017-01-09T02:15:47.408Z,-1.3
2017-01-09T02:16:08.764Z,-1.3
2017-01-09T02:16:30.087Z,-1.3
2017-01-09T02:16:51.428Z,-1.3
2017-01-09T02:17:12.760Z,-1.3
2017-01-09T02:17:34.126Z,-1.3
2017-01-09T02:17:55.504Z,-1.3
2017-01-09T02:18:16.847Z,-1.3
2017-01-09T02:18:38.244Z,-1.3
2017-01-09T02:18:59.583Z,-1.3
2017-01-09T02:19:20.938Z,-1.3
2017-01-09T02:19:42.285Z,-1.3
2017-01-09T02:20:03.645Z,-1.3
2017-01-09T02:20:25.017Z,-1.3
2017-01-09T02:20:46.368Z,-1.4
2017-01-09T02:21:07.707Z,-1.3
2017-01-09T02:21:29.064Z,-1.3
2017-01-09T02:21:50.420Z,-1.3
2017-01-09T02:22:11.804Z,-1.3
2017-01-09T02:22:33.155Z,-1.3
2017-01-09T02:22:54.493Z,-1.3
2017-01-09T02:23:15.849Z,-1.3
2017-01-09T02:23:37.179Z,-1.3
2017-01-09T02:23:58.524Z,-1.3
2017-01-09T02:24:19.853Z,-1.4
2017-01-09T02:24:41.206Z,-1.3
2017-01-09T02:25:02.561Z,-1.3
2017-01-09T02:25:23.902Z,-1.3
2017-01-09T02:25:45.253Z,-1.3
2017-01-09T02:26:06.603Z,-1.3
2017-01-09T02:26:27.961Z,-1.3
2017-01-09T02:26:49.329Z,-1.4
2017-01-09T02:27:10.685Z,-1.3
2017-01-09T02:27:32.037Z,-1.3
2017-01-09T02:27:53.373Z,-1.3
2017-01-09T02:28:14.723Z,-1.3
2017-01-09T02:28:36.091Z,-1.3
2017-01-09T02:28:57.428Z,-1.3
2017-01-09T02:29:18.803Z,-1.3
2017-01-09T02:29:40.365Z,-1.3
2017-01-09T02:30:01.719Z,-1.3
2017-01-09T02:30:23.099Z,-1.4
2017-01-09T02:30:44.444Z,-1.3
2017-01-09T02:31:05.822Z,-1.3
2017-01-09T02:31:27.175Z,-1.3
2017-01-09T02:31:48.530Z,-1.3
2017-01-09T02:32:09.891Z,-1.4
2017-01-09T02:32:31.240Z,-1.3
2017-01-09T02:32:52.603Z,-1.3
2017-01-09T02:33:13.969Z,-1.3
2017-01-09T02:33:35.316Z,-1.4
2017-01-09T02:33:56.648Z,-1.3
2017-01-09T02:34:17.996Z,-1.4
2017-01-09T02:34:39.362Z,-1.3
2017-01-09T02:35:00.723Z,-1.3
2017-01-09T02:35:22.070Z,-1.4
2017-01-09T02:35:43.419Z,-1.3
2017-01-09T02:36:04.761Z,-1.3
2017-01-09T02:36:26.104Z,-1.4
2017-01-09T02:36:47.482Z,-1.3
2017-01-09T02:37:08.876Z,-1.3
2017-01-09T02:37:30.228Z,-1.3
2017-01-09T02:37:51.578Z,-1.3
2017-01-09T02:38:12.947Z,-1.3
2017-01-09T02:38:34.331Z,-1.3
2017-01-09T02:38:55.705Z,-1.3
2017-01-09T02:39:17.075Z,-1.4
2017-01-09T02:39:38.425Z,-1.4
2017-01-09T02:39:59.791Z,-1.3
2017-01-09T02:40:21.147Z,-1.4
2017-01-09T02:40:42.489Z,-1.4
2017-01-09T02:41:03.855Z,-1.4
2017-01-09T02:41:25.215Z,-1.3
2017-01-09T02:41:46.559Z,-1.3
2017-01-09T02:42:07.943Z,-1.3
2017-01-09T02:42:29.322Z,-1.3
2017-01-09T02:42:50.657Z,-1.3
2017-01-09T02:43:11.995Z,-1.3
2017-01-09T02:43:33.344Z,-1.3
2017-01-09T02:43:54.708Z,-1.4
2017-01-09T02:44:16.043Z,-1.3
2017-01-09T02:44:37.394Z,-1.3
2017-01-09T02:44:58.753Z,-1.4
2017-01-09T02:45:20.084Z,-1.3
2017-01-09T02:45:41.432Z,-1.3
2017-01-09T02:46:02.759Z,-1.3
2017-01-09T02:46:24.103Z,-1.4
2017-01-09T02:46:45.441Z,-1.3
2017-01-09T02:47:06.816Z,-1.4
2017-01-09T02:47:28.158Z,-1.4
2017-01-09T02:47:49.515Z,-1.3
2017-01-09T02:48:10.868Z,-1.3
2017-01-09T02:48:32.215Z,-1.4
2017-01-09T02:48:53.555Z,-1.3
2017-01-09T02:49:14.897Z,-1.3
2017-01-09T02:49:36.242Z,-1.3
2017-01-09T02:49:57.578Z,-1.3
2017-01-09T02:50:18.912Z,-1.3
2017-01-09T02:50:40.273Z,-1.3
2017-01-09T02:51:01.606Z,-1.3
2017-01-09T02:51:22.929Z,-1.3
2017-01-09T02:51:44.305Z,-1.3
2017-01-09T02:52:05.650Z,-1.3
2017-01-09T02:52:27.015Z,-1.3
2017-01-09T02:52:48.407Z,-1.3
2017-01-09T02:53:09.767Z,-1.4
2017-01-09T02:53:31.124Z,-1.3
2017-01-09T02:53:52.474Z,-1.3
2017-01-09T02:54:13.830Z,-1.4
2017-01-09T02:54:35.196Z,-1.2
2017-01-09T02:54:56.551Z,-1.3
2017-01-09T02:55:17.925Z,-1.3
2017-01-09T02:55:39.294Z,-1.3
2017-01-09T02:56:00.654Z,-1.4
2017-01-09T02:56:22.000Z,-1.3
2017-01-09T02:56:43.338Z,-1.3
2017-01-09T02:57:04.692Z,-1.4
2017-01-09T02:57:26.025Z,-1.3
2017-01-09T02:57:47.346Z,-1.3
2017-01-09T02:58:08.702Z,-1.3
2017-01-09T02:58:30.067Z,-1.3
2017-01-09T02:58:51.417Z,-1.3
2017-01-09T02:59:12.782Z,-1.3
2017-01-09T02:59:34.120Z,-1.3
2017-01-09T02:59:55.472Z,-1.4
2017-01-09T03:00:16.836Z,-1.3
2017-01-09T03:00:38.190Z,-1.3
2017-01-09T03:00:59.550Z,-1.4
2017-01-09T03:01:20.903Z,-1.4
2017-01-09T03:01:42.240Z,-1.3
2017-01-09T03:02:03.565Z,-1.4
2017-01-09T03:02:24.927Z,-1.3
2017-01-09T03:02:46.263Z,-1.3
2017-01-09T03:03:07.614Z,-1.3
2017-01-09T03:03:28.966Z,-1.3
2017-01-09T03:03:50.317Z,-1.2
2017-01-09T03:04:11.655Z,-1.3
2017-01-09T03:04:32.989Z,-1.4
2017-01-09T03:04:54.334Z,-1.3
2017-01-09T03:05:15.667Z,-1.2
2017-01-09T03:05:37.021Z,-1.3
2017-01-09T03:05:58.402Z,-1.3
2017-01-09T03:06:19.744Z,-1.3
2017-01-09T03:06:41.130Z,-1.3
2017-01-09T03:07:02.466Z,-1.4
2017-01-09T03:07:23.843Z,-1.3
2017-01-09T03:07:45.189Z,-1.3
2017-01-09T03:08:06.542Z,-1.4
2017-01-09T03:08:27.970Z,-1.3
2017-01-09T03:08:49.324Z,-1.3
2017-01-09T03:09:10.660Z,-1.3
2017-01-09T03:09:32.001Z,-1.3
2017-01-09T03:09:53.347Z,-1.4
2017-01-09T03:10:14.726Z,-1.3
2017-01-09T03:10:36.057Z,-1.3
2017-01-09T03:10:57.399Z,-1.3
2017-01-09T03:11:18.739Z,-1.3
2017-01-09T03:11:40.093Z,-1.3
2017-01-09T03:12:01.441Z,-1.3
2017-01-09T03:12:22.788Z,-1.4
2017-01-09T03:12:44.144Z,-1.4
2017-01-09T03:13:05.503Z,-1.3
2017-01-09T03:13:26.841Z,-1.3
2017-01-09T03:13:48.203Z,-1.3
2017-01-09T03:14:09.549Z,-1.3
2017-01-09T03:14:30.904Z,-1.3
2017-01-09T03:14:52.265Z,-1.3
2017-01-09T03:15:13.597Z,-1.3
2017-01-09T03:15:34.959Z,-1.4
2017-01-09T03:15:56.311Z,-1.3
2017-01-09T03:16:17.659Z,-1.3
2017-01-09T03:16:38.997Z,-1.3
2017-01-09T03:17:00.336Z,-1.3
2017-01-09T03:17:21.679Z,-1.3
2017-01-09T03:17:43.040Z,-1.3
2017-01-09T03:18:04.383Z,-1.3
2017-01-09T03:18:25.749Z,-1.3
2017-01-09T03:18:47.131Z,-1.3
2017-01-09T03:19:08.495Z,-1.3
2017-01-09T03:19:29.844Z,-1.3
2017-01-09T03:19:51.223Z,-1.3
2017-01-09T03:20:12.602Z,-1.3
2017-01-09T03:20:33.953Z,-1.3
2017-01-09T03:20:55.301Z,-1.3
2017-01-09T03:21:16.681Z,-1.3
2017-01-09T03:21:38.027Z,-1.3
2017-01-09T03:21:59.406Z,-1.3
2017-01-09T03:22:20.748Z,-1.3
2017-01-09T03:22:42.089Z,-1.3
2017-01-09T03:23:03.422Z,-1.3
2017-01-09T03:23:24.762Z,-1.3
2017-01-09T03:23:46.141Z,-1.3
2017-01-09T03:24:07.539Z,-1.3
2017-01-09T03:24:28.945Z,-1.3
2017-01-09T03:24:50.313Z,-1.3
2017-01-09T03:25:11.642Z,-1.4
2017-01-09T03:25:33.004Z,-1.3
2017-01-09T03:25:54.353Z,-1.3
2017-01-09T03:26:15.686Z,-1.4
2017-01-09T03:26:37.073Z,-1.3
2017-01-09T03:26:58.420Z,-1.3
2017-01-09T03:27:19.775Z,-1.4
2017-01-09T03:27:41.133Z,-1.4
2017-01-09T03:28:02.490Z,-1.4
2017-01-09T03:28:23.847Z,-1.3
2017-01-09T03:28:45.191Z,-1.3
2017-01-09T03:29:06.558Z,-1.3
2017-01-09T03:29:27.905Z,-1.3
2017-01-09T03:29:49.230Z,-1.3
2017-01-09T03:30:10.574Z,-1.3
2017-01-09T03:30:31.915Z,-1.3
2017-01-09T03:30:53.303Z,-1.4
2017-01-09T03:31:14.650Z,-1.3
2017-01-09T03:31:36.011Z,-1.4
2017-01-09T03:31:57.355Z,-1.3
2017-01-09T03:32:18.746Z,-1.3
2017-01-09T03:32:40.109Z,-1.3
2017-01-09T03:33:01.447Z,-1.3
2017-01-09T03:33:22.786Z,-1.4
2017-01-09T03:33:44.153Z,-1.3
2017-01-09T03:34:05.522Z,-1.4
2017-01-09T03:34:26.862Z,-1.3
2017-01-09T03:34:48.220Z,-1.3
2017-01-09T03:35:09.552Z,-1.3
2017-01-09T03:35:30.877Z,-1.4
2017-01-09T03:35:52.279Z,-1.4
2017-01-09T03:36:13.647Z,-1.3
2017-01-09T03:36:34.996Z,-1.3
2017-01-09T03:36:56.356Z,-1.3
2017-01-09T03:37:17.682Z,-1.4
2017-01-09T03:37:39.028Z,-1.3
2017-01-09T03:38:00.384Z,-1.4
2017-01-09T03:38:21.721Z,-1.3
2017-01-09T03:38:43.075Z,-1.3
2017-01-09T03:39:04.418Z,-1.4
2017-01-09T03:39:25.763Z,-1.4
2017-01-09T03:39:47.106Z,-1.5
2017-01-09T03:40:08.457Z,-1.3
2017-01-09T03:40:29.794Z,-1.4
2017-01-09T03:40:51.178Z,-1.3
2017-01-09T03:41:12.517Z,-1.3
2017-01-09T03:41:33.851Z,-1.4
2017-01-09T03:41:55.206Z,-1.3
2017-01-09T03:42:16.541Z,-1.3
2017-01-09T03:42:37.885Z,-1.2
2017-01-09T03:42:59.236Z,-1.4
2017-01-09T03:43:20.576Z,-1.3
2017-01-09T03:43:41.925Z,-1.3
2017-01-09T03:44:03.258Z,-1.3
2017-01-09T03:44:24.603Z,-1.3
2017-01-09T03:44:45.959Z,-1.3
2017-01-09T03:45:07.344Z,-1.3
2017-01-09T03:45:28.689Z,-1.3
2017-01-09T03:45:50.028Z,-1.4
2017-01-09T03:46:11.374Z,-1.3
2017-01-09T03:46:32.723Z,-1.3
2017-01-09T03:46:54.061Z,-1.4
2017-01-09T03:47:15.422Z,-1.4
2017-01-09T03:47:36.763Z,-1.3
2017-01-09T03:47:58.150Z,-1.3
2017-01-09T03:48:19.520Z,-1.4
2017-01-09T03:48:40.861Z,-1.3
2017-01-09T03:49:02.231Z,-1.3
2017-01-09T03:49:23.580Z,-1.3
2017-01-09T03:49:44.955Z,-1.2
2017-01-09T03:50:06.303Z,-1.5
2017-01-09T03:50:27.651Z,-1.4
2017-01-09T03:50:49.002Z,-1.3
2017-01-09T03:51:10.373Z,-1.3
2017-01-09T03:51:31.724Z,-1.3
2017-01-09T03:51:53.074Z,-1.3
2017-01-09T03:52:14.448Z,-1.4
2017-01-09T03:52:35.799Z,-1.3
2017-01-09T03:52:57.158Z,-1.3
2017-01-09T03:53:18.491Z,-1.4
2017-01-09T03:53:39.855Z,-1.3
2017-01-09T03:54:01.202Z,-1.4
2017-01-09T03:54:22.585Z,-1.3
2017-01-09T03:54:43.971Z,-1.4
2017-01-09T03:55:05.318Z,-1.3
2017-01-09T03:55:26.655Z,-1.4
2017-01-09T03:55:47.992Z,-1.3
2017-01-09T03:56:09.337Z,-1.3
2017-01-09T03:56:30.672Z,-1.3
2017-01-09T03:56:52.049Z,-1.3
2017-01-09T03:57:13.432Z,-1.3
2017-01-09T03:57:34.847Z,-1.3
2017-01-09T03:57:56.203Z,-1.4
2017-01-09T03:58:17.556Z,-1.4
2017-01-09T03:58:38.898Z,-1.3
2017-01-09T03:59:00.242Z,-1.3
2017-01-09T03:59:21.590Z,-1.4
2017-01-09T03:59:42.939Z,-1.3
2017-01-09T04:00:04.279Z,-1.3
2017-01-09T04:00:25.627Z,-1.3
2017-01-09T04:00:47.009Z,-1.4
2017-01-09T04:01:08.358Z,-1.3
2017-01-09T04:01:29.741Z,-1.3
2017-01-09T04:01:51.080Z,-1.4
2017-01-09T04:02:12.412Z,-1.4
2017-01-09T04:02:33.751Z,-1.4
2017-01-09T04:02:55.114Z,-1.4
2017-01-09T04:03:16.475Z,-1.4
2017-01-09T04:03:37.816Z,-1.4
2017-01-09T04:03:59.156Z,-1.4
2017-01-09T04:04:20.522Z,-1.3
2017-01-09T04:04:41.862Z,-1.4
2017-01-09T04:05:03.205Z,-1.4
2017-01-09T04:05:24.547Z,-1.4
2017-01-09T04:05:45.869Z,-1.4
2017-01-09T04:06:07.213Z,-1.4
2017-01-09T04:06:28.581Z,-1.4
2017-01-09T04:06:49.935Z,-1.4
2017-01-09T04:07:11.264Z,-1.4
2017-01-09T04:07:32.610Z,-1.4
2017-01-09T04:07:53.974Z,-1.4
2017-01-09T04:08:15.326Z,-1.4
2017-01-09T04:08:36.711Z,-1.3
2017-01-09T04:08:58.060Z,-1.4
2017-01-09T04:09:19.435Z,-1.4
2017-01-09T04:09:40.782Z,-1.4
2017-01-09T04:10:02.126Z,-1.5
2017-01-09T04:10:23.473Z,-1.4
2017-01-09T04:10:44.830Z,-1.4
2017-01-09T04:11:06.169Z,-1.4
2017-01-09T04:11:27.523Z,-1.4
2017-01-09T04:11:48.889Z,-1.4
2017-01-09T04:12:10.236Z,-1.4
2017-01-09T04:12:31.579Z,-1.4
2017-01-09T04:12:52.964Z,-1.4
2017-01-09T04:13:14.313Z,-1.4
2017-01-09T04:13:35.654Z,-1.4
2017-01-09T04:13:57.028Z,-1.3
2017-01-09T04:14:18.381Z,-1.4
2017-01-09T04:14:39.724Z,-1.4
2017-01-09T04:15:01.073Z,-1.4
2017-01-09T04:15:22.498Z,-1.4
2017-01-09T04:15:43.880Z,-1.4
2017-01-09T04:16:09.509Z,-1.4
2017-01-09T04:16:31.488Z,-1.4
2017-01-09T04:16:52.853Z,-1.4
2017-01-09T04:17:14.197Z,-1.4
2017-01-09T04:17:35.528Z,-1.4
2017-01-09T04:17:56.907Z,-1.4
2017-01-09T04:18:18.247Z,-1.5
2017-01-09T04:18:39.587Z,-1.3
2017-01-09T04:19:00.964Z,-1.4
2017-01-09T04:19:22.317Z,-1.4
2017-01-09T04:19:43.660Z,-1.5
2017-01-09T04:20:05.005Z,-1.5
2017-01-09T04:20:26.357Z,-1.5
2017-01-09T04:20:47.701Z,-1.4
2017-01-09T04:21:09.053Z,-1.5
2017-01-09T04:21:30.390Z,-1.5
2017-01-09T04:21:51.752Z,-1.5
2017-01-09T04:22:13.129Z,-1.5
2017-01-09T04:22:34.524Z,-1.5
2017-01-09T04:22:55.868Z,-1.5
2017-01-09T04:23:17.231Z,-1.5
2017-01-09T04:23:38.567Z,-1.4
2017-01-09T04:23:59.917Z,-1.4
2017-01-09T04:24:21.249Z,-1.5
2017-01-09T04:24:42.598Z,-1.5
2017-01-09T04:25:03.946Z,-1.4
2017-01-09T04:25:25.307Z,-1.4
2017-01-09T04:25:46.671Z,-1.5
2017-01-09T04:26:08.027Z,-1.4
2017-01-09T04:26:29.366Z,-1.4
2017-01-09T04:26:50.758Z,-1.4
2017-01-09T04:27:12.107Z,-1.5
2017-01-09T04:27:33.484Z,-1.5
2017-01-09T04:27:54.825Z,-1.4
2017-01-09T04:28:16.170Z,-1.5
2017-01-09T04:28:37.517Z,-1.4
2017-01-09T04:28:58.859Z,-1.4
2017-01-09T04:29:20.189Z,-1.5
2017-01-09T04:29:41.589Z,-1.4
2017-01-09T04:30:02.939Z,-1.5
2017-01-09T04:30:24.286Z,-1.5
2017-01-09T04:30:45.649Z,-1.4
2017-01-09T04:31:06.997Z,-1.5
2017-01-09T04:31:28.327Z,-1.4
2017-01-09T04:31:49.705Z,-1.5
2017-01-09T04:32:11.044Z,-1.5
2017-01-09T04:32:32.416Z,-1.4
2017-01-09T04:32:53.763Z,-1.4
2017-01-09T04:33:15.127Z,-1.4
2017-01-09T04:33:36.485Z,-1.4
2017-01-09T04:33:57.847Z,-1.4
2017-01-09T04:34:19.199Z,-1.4
2017-01-09T04:34:40.570Z,-1.4
2017-01-09T04:35:01.928Z,-1.5
2017-01-09T04:35:23.288Z,-1.4
2017-01-09T04:35:44.633Z,-1.4
2017-01-09T04:36:05.980Z,-1.5
2017-01-09T04:36:27.323Z,-1.5
2017-01-09T04:36:48.705Z,-1.4
2017-01-09T04:37:10.084Z,-1.4
2017-01-09T04:37:31.445Z,-1.4
2017-01-09T04:37:52.826Z,-1.5
2017-01-09T04:38:14.174Z,-1.5
2017-01-09T04:38:35.532Z,-1.5
2017-01-09T04:38:56.873Z,-1.4
2017-01-09T04:39:18.198Z,-1.5
2017-01-09T04:39:39.554Z,-1.5
2017-01-09T04:40:00.901Z,-1.5
2017-01-09T04:40:22.243Z,-1.5
2017-01-09T04:40:43.597Z,-1.5
2017-01-09T04:41:04.955Z,-1.4
2017-01-09T04:41:26.289Z,-1.3
2017-01-09T04:41:47.701Z,-1.4
2017-01-09T04:42:09.043Z,-1.5
2017-01-09T04:42:30.396Z,-1.4
2017-01-09T04:42:51.745Z,-1.4
2017-01-09T04:43:13.085Z,-1.4
2017-01-09T04:43:34.438Z,-1.5
2017-01-09T04:43:55.788Z,-1.4
2017-01-09T04:44:17.149Z,-1.5